Comins, Michigan
Current Conditions -  °F | °C
As of 3:54 AM on Friday 19 Dec 2014 (Local Time) from KAPN Reporting Station
Clear Clear  
Wind Chill: 13°   Ceiling: Unl
Heat Index: 13°   Visibility: 10mi
Dew Point: 11°   Wind: 0mph
Humidity: 92%   Direction: NA
Pressure: 30.23"   Gusts: NA
Location:  44.8°N, 84.04°W
Report Text: KAPN 190854Z AUTO 00000KT 10SM CLR M11/M12 A3023 RMK AO2 SLP249 I1000 I3000 T11061117 50002
Loading
Personal Weather Stations






























Interactive Weather Map New forecast layout! Learn more

10-Day Weather Forecast

Advertisements
Track Severe Weather on mobile